Bouzas — EAPC — position and weather

sailwx.info

Track history (hours):
 
Tides and Currents Weather Stations Pressure Air Temp Water Temp Dewpoint Dewpoint Depression Visibility Wind Speed Wind Dir Waves Ship Positions

Bouzas

Last reported at 2016-Oct-01 14:32 UTC. Time now 2016-Oct-01 15:33 UTC.
Position N 46°57' W 002°48'.

Length 142 m; draft 5.8 m.

Type: Cargo ship. MMSI: 224029000.

Date/timePositionNaut miles runAvg speedWind from/ knotsBaromVisibWave heightAir tempDewpointWater temp
2016-Oct-01 14:32N 46°57' W 002°48'1515.3
2016-Oct-01 13:33N 47°04' W 002°28'19 2.0
2016-Oct-01 04:28N 47°17' W 002°10'0 0.0
2016-Oct-01 00:04N 47°17' W 002°10'0 0.0
2016-Sep-30 22:22N 47°17' W 002°10'0 0.0
2016-Sep-30 20:28N 47°17' W 002°10'0 0.0
2016-Sep-30 17:31N 47°17' W 002°10'0 0.0
2016-Sep-30 16:31N 47°17' W 002°10'0 0.0
2016-Sep-30 14:31N 47°17' W 002°10'0 0.0
2016-Sep-30 13:25N 47°17' W 002°10'0 0.0
2016-Sep-30 10:31N 47°17' W 002°10'0 0.0
2016-Sep-30 08:31N 47°17' W 002°10'0 0.0
2016-Sep-30 06:33N 47°17' W 002°10'0 0.0
2016-Sep-30 03:33N 47°17' W 002°10'0 0.0
2016-Sep-30 02:33N 47°17' W 002°10'0 0.0
2016-Sep-29 23:33N 47°17' W 002°10'0 0.0
2016-Sep-29 21:33N 47°17' W 002°10'0 0.0
2016-Sep-29 20:33N 47°17' W 002°10'3 2.5
2016-Sep-29 19:33N 47°16' W 002°12'8716.7
2016-Sep-29 14:20N 46°19' W 003°49'328 8.9
2016-Sep-28 01:26N 42°24' W 009°08'41814.4
2016-Sep-26 20:31N 47°17' W 002°10'0 0.0
2016-Sep-26 19:25N 47°17' W 002°10'0 0.0
2016-Sep-26 15:31N 47°17' W 002°10'0 0.0
2016-Sep-26 08:25N 47°17' W 002°10'0 0.0
2016-Sep-26 02:33N 47°17' W 002°10'0 0.0
2016-Sep-26 01:33N 47°17' W 002°10'0 0.0
2016-Sep-26 00:33N 47°17' W 002°10'0 0.0
2016-Sep-25 21:33N 47°17' W 002°10'0 0.0
2016-Sep-25 17:30N 47°17' W 002°10'0 0.0
2016-Sep-25 16:27N 47°17' W 002°10'5 5.5
2016-Sep-25 15:33N 47°14' W 002°15'1716.3
2016-Sep-25 14:30N 47°02' W 002°33'  
2016-Sep-21 23:28N 46°45' W 003°15'1718.3
2016-Sep-21 22:33N 46°54' W 002°55'19656001.1
2016-Sep-21 22:14N 31°39' E 034°32'1942726.1
2016-Sep-21 19:33N 47°17' W 002°10'19426292.1
2016-Sep-21 19:15N 31°39' E 034°32'  
Track history (hours):
 
Tides and Currents Weather Stations Pressure Air Temp Water Temp Dewpoint Dewpoint Depression Visibility Wind Speed Wind Dir Waves Ship Positions

Bouzas

Last reported at 2016-Oct-01 14:32 UTC. Time now 2016-Oct-01 15:33 UTC.
Position N 46°57' W 002°48'.

Length 142 m; draft 5.8 m.

Type: Cargo ship. MMSI: 224029000.

Date/timePositionNaut miles runAvg speedWind from/ knotsBaromVisibWave heightAir tempDewpointWater temp
2016-Oct-01 14:32N 46°57' W 002°48'1515.3
2016-Oct-01 13:33N 47°04' W 002°28'19 2.0
2016-Oct-01 04:28N 47°17' W 002°10'0 0.0
2016-Oct-01 00:04N 47°17' W 002°10'0 0.0
2016-Sep-30 22:22N 47°17' W 002°10'0 0.0
2016-Sep-30 20:28N 47°17' W 002°10'0 0.0
2016-Sep-30 17:31N 47°17' W 002°10'0 0.0
2016-Sep-30 16:31N 47°17' W 002°10'0 0.0
2016-Sep-30 14:31N 47°17' W 002°10'0 0.0
2016-Sep-30 13:25N 47°17' W 002°10'0 0.0
2016-Sep-30 10:31N 47°17' W 002°10'0 0.0
2016-Sep-30 08:31N 47°17' W 002°10'0 0.0
2016-Sep-30 06:33N 47°17' W 002°10'0 0.0
2016-Sep-30 03:33N 47°17' W 002°10'0 0.0
2016-Sep-30 02:33N 47°17' W 002°10'0 0.0
2016-Sep-29 23:33N 47°17' W 002°10'0 0.0
2016-Sep-29 21:33N 47°17' W 002°10'0 0.0
2016-Sep-29 20:33N 47°17' W 002°10'3 2.5
2016-Sep-29 19:33N 47°16' W 002°12'8716.7
2016-Sep-29 14:20N 46°19' W 003°49'328 8.9
2016-Sep-28 01:26N 42°24' W 009°08'41814.4
2016-Sep-26 20:31N 47°17' W 002°10'0 0.0
2016-Sep-26 19:25N 47°17' W 002°10'0 0.0
2016-Sep-26 15:31N 47°17' W 002°10'0 0.0
2016-Sep-26 08:25N 47°17' W 002°10'0 0.0
2016-Sep-26 02:33N 47°17' W 002°10'0 0.0
2016-Sep-26 01:33N 47°17' W 002°10'0 0.0
2016-Sep-26 00:33N 47°17' W 002°10'0 0.0
2016-Sep-25 21:33N 47°17' W 002°10'0 0.0
2016-Sep-25 17:30N 47°17' W 002°10'0 0.0
2016-Sep-25 16:27N 47°17' W 002°10'5 5.5
2016-Sep-25 15:33N 47°14' W 002°15'1716.3
2016-Sep-25 14:30N 47°02' W 002°33'  
2016-Sep-21 23:28N 46°45' W 003°15'1718.3
2016-Sep-21 22:33N 46°54' W 002°55'19656001.1
2016-Sep-21 22:14N 31°39' E 034°32'1942726.1
2016-Sep-21 19:33N 47°17' W 002°10'19426292.1
2016-Sep-21 19:15N 31°39' E 034°32'  

Dump ship's entire track history